sensor_id;sensor_type;location;lat;lon;timestamp;P1;durP1;ratioP1;P2;durP2;ratioP2
29380;SDS011;16364;52.490;13.326;2023-10-19T00:00:12;16.90;;;10.83;;
29380;SDS011;16364;52.490;13.326;2023-10-19T00:02:50;13.27;;;10.80;;
29380;SDS011;16364;52.490;13.326;2023-10-19T00:05:19;14.97;;;11.60;;
29380;SDS011;16364;52.490;13.326;2023-10-19T00:07:45;15.90;;;11.27;;
29380;SDS011;16364;52.490;13.326;2023-10-19T00:10:11;21.07;;;13.50;;
29380;SDS011;16364;52.490;13.326;2023-10-19T00:12:40;14.87;;;10.67;;
29380;SDS011;16364;52.490;13.326;2023-10-19T00:15:05;14.50;;;10.90;;
29380;SDS011;16364;52.490;13.326;2023-10-19T00:17:31;16.73;;;11.60;;
29380;SDS011;16364;52.490;13.326;2023-10-19T00:19:57;17.07;;;12.37;;
29380;SDS011;16364;52.490;13.326;2023-10-19T00:22:30;17.33;;;12.93;;
29380;SDS011;16364;52.490;13.326;2023-10-19T00:25:00;17.40;;;11.17;;
29380;SDS011;16364;52.490;13.326;2023-10-19T00:27:27;13.60;;;11.40;;
29380;SDS011;16364;52.490;13.326;2023-10-19T00:29:52;14.63;;;10.73;;
29380;SDS011;16364;52.490;13.326;2023-10-19T00:32:20;15.37;;;10.40;;
29380;SDS011;16364;52.490;13.326;2023-10-19T00:34:49;16.70;;;10.47;;
29380;SDS011;16364;52.490;13.326;2023-10-19T00:37:19;14.80;;;10.33;;
29380;SDS011;16364;52.490;13.326;2023-10-19T00:39:51;17.27;;;12.07;;
29380;SDS011;16364;52.490;13.326;2023-10-19T00:42:19;14.17;;;10.30;;
29380;SDS011;16364;52.490;13.326;2023-10-19T00:44:49;15.80;;;10.50;;
29380;SDS011;16364;52.490;13.326;2023-10-19T00:47:15;14.93;;;10.50;;
29380;SDS011;16364;52.490;13.326;2023-10-19T00:49:44;20.40;;;10.83;;
29380;SDS011;16364;52.490;13.326;2023-10-19T00:52:10;17.03;;;11.17;;
29380;SDS011;16364;52.490;13.326;2023-10-19T00:54:44;11.83;;;9.63;;
29380;SDS011;16364;52.490;13.326;2023-10-19T00:57:17;16.97;;;11.93;;
29380;SDS011;16364;52.490;13.326;2023-10-19T00:59:45;15.10;;;11.30;;
29380;SDS011;16364;52.490;13.326;2023-10-19T01:02:25;18.03;;;11.10;;
29380;SDS011;16364;52.490;13.326;2023-10-19T01:04:51;14.60;;;11.13;;
29380;SDS011;16364;52.490;13.326;2023-10-19T01:07:30;16.57;;;10.73;;
29380;SDS011;16364;52.490;13.326;2023-10-19T01:09:56;15.83;;;11.23;;
29380;SDS011;16364;52.490;13.326;2023-10-19T01:12:25;16.20;;;11.67;;
29380;SDS011;16364;52.490;13.326;2023-10-19T01:15:09;18.60;;;12.10;;
29380;SDS011;16364;52.490;13.326;2023-10-19T01:17:38;15.10;;;11.47;;
29380;SDS011;16364;52.490;13.326;2023-10-19T01:22:48;14.23;;;10.13;;
29380;SDS011;16364;52.490;13.326;2023-10-19T01:25:15;17.90;;;10.80;;
29380;SDS011;16364;52.490;13.326;2023-10-19T01:27:49;11.93;;;9.53;;
29380;SDS011;16364;52.490;13.326;2023-10-19T01:30:20;20.77;;;11.83;;
29380;SDS011;16364;52.490;13.326;2023-10-19T01:32:45;15.47;;;10.57;;
29380;SDS011;16364;52.490;13.326;2023-10-19T01:35:10;19.37;;;10.83;;
29380;SDS011;16364;52.490;13.326;2023-10-19T01:37:36;16.57;;;11.67;;
29380;SDS011;16364;52.490;13.326;2023-10-19T01:40:03;15.80;;;10.70;;
29380;SDS011;16364;52.490;13.326;2023-10-19T01:42:29;16.40;;;11.23;;
29380;SDS011;16364;52.490;13.326;2023-10-19T01:44:55;18.40;;;12.77;;
29380;SDS011;16364;52.490;13.326;2023-10-19T01:47:21;17.97;;;13.63;;
29380;SDS011;16364;52.490;13.326;2023-10-19T01:49:47;16.80;;;11.00;;
29380;SDS011;16364;52.490;13.326;2023-10-19T01:52:17;16.50;;;12.10;;
29380;SDS011;16364;52.490;13.326;2023-10-19T01:54:42;17.00;;;11.50;;
29380;SDS011;16364;52.490;13.326;2023-10-19T01:57:07;15.73;;;13.20;;
29380;SDS011;16364;52.490;13.326;2023-10-19T01:59:33;17.67;;;11.07;;
29380;SDS011;16364;52.490;13.326;2023-10-19T02:01:59;15.87;;;11.50;;
29380;SDS011;16364;52.490;13.326;2023-10-19T02:04:24;17.60;;;11.73;;
29380;SDS011;16364;52.490;13.326;2023-10-19T02:06:50;15.60;;;11.73;;
29380;SDS011;16364;52.490;13.326;2023-10-19T02:09:19;14.50;;;12.27;;
29380;SDS011;16364;52.490;13.326;2023-10-19T02:11:56;18.10;;;11.17;;
29380;SDS011;16364;52.490;13.326;2023-10-19T02:14:22;17.90;;;12.53;;
29380;SDS011;16364;52.490;13.326;2023-10-19T02:16:50;17.60;;;12.30;;
29380;SDS011;16364;52.490;13.326;2023-10-19T02:19:16;19.20;;;12.97;;
29380;SDS011;16364;52.490;13.326;2023-10-19T02:21:42;18.97;;;13.30;;
29380;SDS011;16364;52.490;13.326;2023-10-19T02:24:08;19.60;;;13.53;;
29380;SDS011;16364;52.490;13.326;2023-10-19T02:26:33;19.30;;;12.60;;
29380;SDS011;16364;52.490;13.326;2023-10-19T02:28:59;18.13;;;13.47;;
29380;SDS011;16364;52.490;13.326;2023-10-19T02:31:25;22.00;;;13.13;;
29380;SDS011;16364;52.490;13.326;2023-10-19T02:33:50;23.07;;;13.33;;
29380;SDS011;16364;52.490;13.326;2023-10-19T02:36:28;18.30;;;12.97;;
29380;SDS011;16364;52.490;13.326;2023-10-19T02:38:58;19.17;;;12.83;;
29380;SDS011;16364;52.490;13.326;2023-10-19T02:44:01;17.30;;;12.37;;
29380;SDS011;16364;52.490;13.326;2023-10-19T02:46:33;22.07;;;12.73;;
29380;SDS011;16364;52.490;13.326;2023-10-19T02:49:01;17.70;;;12.97;;
29380;SDS011;16364;52.490;13.326;2023-10-19T02:51:28;20.37;;;12.97;;
29380;SDS011;16364;52.490;13.326;2023-10-19T02:53:54;19.80;;;13.57;;
29380;SDS011;16364;52.490;13.326;2023-10-19T02:56:19;19.47;;;14.43;;
29380;SDS011;16364;52.490;13.326;2023-10-19T02:58:46;16.47;;;11.60;;
29380;SDS011;16364;52.490;13.326;2023-10-19T03:01:20;23.13;;;13.90;;
29380;SDS011;16364;52.490;13.326;2023-10-19T03:03:50;15.77;;;13.43;;
29380;SDS011;16364;52.490;13.326;2023-10-19T03:06:22;18.60;;;13.20;;
29380;SDS011;16364;52.490;13.326;2023-10-19T03:08:48;17.63;;;11.60;;
29380;SDS011;16364;52.490;13.326;2023-10-19T03:11:17;16.27;;;11.93;;
29380;SDS011;16364;52.490;13.326;2023-10-19T03:13:42;20.03;;;14.70;;
29380;SDS011;16364;52.490;13.326;2023-10-19T03:16:09;25.20;;;14.30;;
29380;SDS011;16364;52.490;13.326;2023-10-19T03:18:35;18.03;;;12.73;;
29380;SDS011;16364;52.490;13.326;2023-10-19T03:21:00;21.60;;;13.90;;
29380;SDS011;16364;52.490;13.326;2023-10-19T03:23:26;17.03;;;13.40;;
29380;SDS011;16364;52.490;13.326;2023-10-19T03:25:54;20.47;;;14.30;;
29380;SDS011;16364;52.490;13.326;2023-10-19T03:28:38;18.47;;;12.97;;
29380;SDS011;16364;52.490;13.326;2023-10-19T03:31:05;21.80;;;14.27;;
29380;SDS011;16364;52.490;13.326;2023-10-19T03:33:31;18.80;;;13.03;;
29380;SDS011;16364;52.490;13.326;2023-10-19T03:35:56;23.47;;;14.10;;
29380;SDS011;16364;52.490;13.326;2023-10-19T03:38:21;21.37;;;13.53;;
29380;SDS011;16364;52.490;13.326;2023-10-19T03:40:48;21.23;;;13.87;;
29380;SDS011;16364;52.490;13.326;2023-10-19T03:43:24;20.47;;;13.70;;
29380;SDS011;16364;52.490;13.326;2023-10-19T03:45:52;18.63;;;11.33;;
29380;SDS011;16364;52.490;13.326;2023-10-19T03:48:20;15.90;;;12.87;;
29380;SDS011;16364;52.490;13.326;2023-10-19T03:50:55;18.13;;;13.30;;
29380;SDS011;16364;52.490;13.326;2023-10-19T03:53:21;21.67;;;13.67;;
29380;SDS011;16364;52.490;13.326;2023-10-19T03:55:47;20.20;;;14.27;;
29380;SDS011;16364;52.490;13.326;2023-10-19T03:58:13;14.37;;;11.97;;
29380;SDS011;16364;52.490;13.326;2023-10-19T04:00:38;20.70;;;13.30;;
29380;SDS011;16364;52.490;13.326;2023-10-19T04:03:03;18.70;;;13.27;;
29380;SDS011;16364;52.490;13.326;2023-10-19T04:05:29;25.73;;;14.13;;
29380;SDS011;16364;52.490;13.326;2023-10-19T04:07:56;23.83;;;14.10;;
29380;SDS011;16364;52.490;13.326;2023-10-19T04:10:23;24.67;;;14.13;;
29380;SDS011;16364;52.490;13.326;2023-10-19T04:12:54;22.80;;;14.87;;
29380;SDS011;16364;52.490;13.326;2023-10-19T04:15:20;21.30;;;12.87;;
29380;SDS011;16364;52.490;13.326;2023-10-19T04:17:46;28.83;;;15.30;;
29380;SDS011;16364;52.490;13.326;2023-10-19T04:20:12;20.50;;;14.00;;
29380;SDS011;16364;52.490;13.326;2023-10-19T04:25:09;16.90;;;12.90;;
29380;SDS011;16364;52.490;13.326;2023-10-19T04:27:37;21.40;;;14.20;;
29380;SDS011;16364;52.490;13.326;2023-10-19T04:30:03;24.20;;;15.27;;
29380;SDS011;16364;52.490;13.326;2023-10-19T04:32:28;24.00;;;15.37;;
29380;SDS011;16364;52.490;13.326;2023-10-19T04:34:53;24.37;;;15.07;;
29380;SDS011;16364;52.490;13.326;2023-10-19T04:37:19;23.83;;;14.23;;
29380;SDS011;16364;52.490;13.326;2023-10-19T04:39:44;22.47;;;15.90;;
29380;SDS011;16364;52.490;13.326;2023-10-19T04:42:10;27.10;;;14.87;;
29380;SDS011;16364;52.490;13.326;2023-10-19T04:44:35;20.43;;;14.40;;
29380;SDS011;16364;52.490;13.326;2023-10-19T04:47:00;21.00;;;15.77;;
29380;SDS011;16364;52.490;13.326;2023-10-19T04:49:25;21.33;;;13.83;;
29380;SDS011;16364;52.490;13.326;2023-10-19T04:51:50;24.20;;;16.00;;
29380;SDS011;16364;52.490;13.326;2023-10-19T04:54:16;23.37;;;15.77;;
29380;SDS011;16364;52.490;13.326;2023-10-19T04:56:41;27.03;;;15.90;;
29380;SDS011;16364;52.490;13.326;2023-10-19T04:59:06;24.67;;;17.27;;
29380;SDS011;16364;52.490;13.326;2023-10-19T05:01:31;25.47;;;16.60;;
29380;SDS011;16364;52.490;13.326;2023-10-19T05:03:59;25.33;;;16.23;;
29380;SDS011;16364;52.490;13.326;2023-10-19T05:06:24;23.20;;;16.37;;
29380;SDS011;16364;52.490;13.326;2023-10-19T05:08:49;22.80;;;15.60;;
29380;SDS011;16364;52.490;13.326;2023-10-19T05:11:14;21.57;;;15.67;;
29380;SDS011;16364;52.490;13.326;2023-10-19T05:13:39;25.77;;;16.60;;
29380;SDS011;16364;52.490;13.326;2023-10-19T05:16:05;25.47;;;15.30;;
29380;SDS011;16364;52.490;13.326;2023-10-19T05:18:30;23.13;;;15.40;;
29380;SDS011;16364;52.490;13.326;2023-10-19T05:20:56;25.23;;;15.40;;
29380;SDS011;16364;52.490;13.326;2023-10-19T05:23:24;31.20;;;17.10;;
29380;SDS011;16364;52.490;13.326;2023-10-19T05:25:51;21.37;;;15.40;;
29380;SDS011;16364;52.490;13.326;2023-10-19T05:28:17;21.40;;;15.17;;
29380;SDS011;16364;52.490;13.326;2023-10-19T05:30:43;27.27;;;17.20;;
29380;SDS011;16364;52.490;13.326;2023-10-19T05:33:09;28.20;;;16.77;;
29380;SDS011;16364;52.490;13.326;2023-10-19T05:35:34;26.73;;;16.43;;
29380;SDS011;16364;52.490;13.326;2023-10-19T05:38:05;23.57;;;16.13;;
29380;SDS011;16364;52.490;13.326;2023-10-19T05:40:30;21.50;;;15.37;;
29380;SDS011;16364;52.490;13.326;2023-10-19T05:42:56;28.80;;;16.20;;
29380;SDS011;16364;52.490;13.326;2023-10-19T05:45:22;27.63;;;17.23;;
29380;SDS011;16364;52.490;13.326;2023-10-19T05:47:48;25.60;;;18.33;;
29380;SDS011;16364;52.490;13.326;2023-10-19T05:50:13;22.10;;;16.13;;
29380;SDS011;16364;52.490;13.326;2023-10-19T05:52:41;25.23;;;17.43;;
29380;SDS011;16364;52.490;13.326;2023-10-19T05:55:07;25.90;;;17.50;;
29380;SDS011;16364;52.490;13.326;2023-10-19T05:57:33;22.83;;;16.43;;
29380;SDS011;16364;52.490;13.326;2023-10-19T05:59:58;26.57;;;18.47;;
29380;SDS011;16364;52.490;13.326;2023-10-19T06:02:23;24.80;;;16.57;;
29380;SDS011;16364;52.490;13.326;2023-10-19T06:04:49;24.33;;;16.70;;
29380;SDS011;16364;52.490;13.326;2023-10-19T06:07:14;26.80;;;17.23;;
29380;SDS011;16364;52.490;13.326;2023-10-19T06:09:39;27.23;;;19.47;;
29380;SDS011;16364;52.490;13.326;2023-10-19T06:12:05;22.67;;;15.70;;
29380;SDS011;16364;52.490;13.326;2023-10-19T06:14:30;27.40;;;17.80;;
29380;SDS011;16364;52.490;13.326;2023-10-19T06:16:56;27.10;;;18.87;;
29380;SDS011;16364;52.490;13.326;2023-10-19T06:19:21;31.57;;;18.73;;
29380;SDS011;16364;52.490;13.326;2023-10-19T06:21:47;29.00;;;18.20;;
29380;SDS011;16364;52.490;13.326;2023-10-19T06:24:12;31.10;;;18.70;;
29380;SDS011;16364;52.490;13.326;2023-10-19T06:26:41;28.00;;;19.48;;
29380;SDS011;16364;52.490;13.326;2023-10-19T06:29:06;31.00;;;20.67;;
29380;SDS011;16364;52.490;13.326;2023-10-19T06:31:31;28.30;;;18.80;;
29380;SDS011;16364;52.490;13.326;2023-10-19T06:33:56;29.00;;;19.53;;
29380;SDS011;16364;52.490;13.326;2023-10-19T06:36:22;31.00;;;18.93;;
29380;SDS011;16364;52.490;13.326;2023-10-19T06:38:47;28.87;;;17.97;;
29380;SDS011;16364;52.490;13.326;2023-10-19T06:41:16;25.30;;;18.30;;
29380;SDS011;16364;52.490;13.326;2023-10-19T06:43:43;30.27;;;20.33;;
29380;SDS011;16364;52.490;13.326;2023-10-19T06:46:08;28.57;;;19.63;;
29380;SDS011;16364;52.490;13.326;2023-10-19T06:48:36;43.40;;;27.43;;
29380;SDS011;16364;52.490;13.326;2023-10-19T06:51:01;45.50;;;30.10;;
29380;SDS011;16364;52.490;13.326;2023-10-19T06:53:26;38.73;;;24.40;;
29380;SDS011;16364;52.490;13.326;2023-10-19T06:55:52;30.37;;;20.57;;
29380;SDS011;16364;52.490;13.326;2023-10-19T06:58:18;30.23;;;19.33;;
29380;SDS011;16364;52.490;13.326;2023-10-19T07:00:46;28.53;;;18.20;;
29380;SDS011;16364;52.490;13.326;2023-10-19T07:03:21;35.70;;;19.23;;
29380;SDS011;16364;52.490;13.326;2023-10-19T07:05:46;26.17;;;18.63;;
29380;SDS011;16364;52.490;13.326;2023-10-19T07:08:11;27.87;;;18.43;;
29380;SDS011;16364;52.490;13.326;2023-10-19T07:10:36;32.17;;;19.73;;
29380;SDS011;16364;52.490;13.326;2023-10-19T07:13:02;28.30;;;19.03;;
29380;SDS011;16364;52.490;13.326;2023-10-19T07:15:28;28.30;;;18.70;;
29380;SDS011;16364;52.490;13.326;2023-10-19T07:17:54;26.57;;;18.23;;
29380;SDS011;16364;52.490;13.326;2023-10-19T07:20:20;30.40;;;20.40;;
29380;SDS011;16364;52.490;13.326;2023-10-19T07:23:00;26.90;;;18.67;;
29380;SDS011;16364;52.490;13.326;2023-10-19T07:25:31;29.40;;;18.13;;
29380;SDS011;16364;52.490;13.326;2023-10-19T07:28:01;31.30;;;17.93;;
29380;SDS011;16364;52.490;13.326;2023-10-19T07:30:26;28.57;;;18.80;;
29380;SDS011;16364;52.490;13.326;2023-10-19T07:32:51;27.87;;;18.93;;
29380;SDS011;16364;52.490;13.326;2023-10-19T07:35:20;27.30;;;18.00;;
29380;SDS011;16364;52.490;13.326;2023-10-19T07:37:45;28.13;;;18.60;;
29380;SDS011;16364;52.490;13.326;2023-10-19T07:40:12;25.87;;;17.07;;
29380;SDS011;16364;52.490;13.326;2023-10-19T07:42:39;25.87;;;17.43;;
29380;SDS011;16364;52.490;13.326;2023-10-19T07:45:05;23.97;;;16.93;;
29380;SDS011;16364;52.490;13.326;2023-10-19T07:47:32;27.50;;;17.43;;
29380;SDS011;16364;52.490;13.326;2023-10-19T07:49:57;26.77;;;18.90;;
29380;SDS011;16364;52.490;13.326;2023-10-19T07:52:24;26.10;;;18.43;;
29380;SDS011;16364;52.490;13.326;2023-10-19T07:54:49;27.77;;;18.53;;
29380;SDS011;16364;52.490;13.326;2023-10-19T07:57:15;26.33;;;18.00;;
29380;SDS011;16364;52.490;13.326;2023-10-19T07:59:40;34.53;;;20.63;;
29380;SDS011;16364;52.490;13.326;2023-10-19T08:02:07;26.30;;;18.60;;
29380;SDS011;16364;52.490;13.326;2023-10-19T08:04:33;29.87;;;18.00;;
29380;SDS011;16364;52.490;13.326;2023-10-19T08:06:58;26.63;;;17.00;;
29380;SDS011;16364;52.490;13.326;2023-10-19T08:09:23;37.73;;;18.67;;
29380;SDS011;16364;52.490;13.326;2023-10-19T08:11:49;28.27;;;18.00;;
29380;SDS011;16364;52.490;13.326;2023-10-19T08:14:15;24.20;;;16.87;;
29380;SDS011;16364;52.490;13.326;2023-10-19T08:16:40;23.83;;;16.40;;
29380;SDS011;16364;52.490;13.326;2023-10-19T08:19:07;27.10;;;17.77;;
29380;SDS011;16364;52.490;13.326;2023-10-19T08:21:32;23.53;;;17.10;;
29380;SDS011;16364;52.490;13.326;2023-10-19T08:23:59;23.00;;;16.60;;
29380;SDS011;16364;52.490;13.326;2023-10-19T08:26:24;27.73;;;16.93;;
29380;SDS011;16364;52.490;13.326;2023-10-19T08:28:50;24.43;;;15.97;;
29380;SDS011;16364;52.490;13.326;2023-10-19T08:31:15;22.37;;;16.97;;
29380;SDS011;16364;52.490;13.326;2023-10-19T08:33:40;26.77;;;17.10;;
29380;SDS011;16364;52.490;13.326;2023-10-19T08:36:06;23.67;;;16.07;;
29380;SDS011;16364;52.490;13.326;2023-10-19T08:38:31;23.73;;;16.07;;
29380;SDS011;16364;52.490;13.326;2023-10-19T08:40:58;24.40;;;16.63;;
29380;SDS011;16364;52.490;13.326;2023-10-19T08:43:23;20.80;;;15.00;;
29380;SDS011;16364;52.490;13.326;2023-10-19T08:45:49;25.03;;;16.40;;
29380;SDS011;16364;52.490;13.326;2023-10-19T08:48:14;25.83;;;17.57;;
29380;SDS011;16364;52.490;13.326;2023-10-19T08:50:39;27.97;;;16.90;;
29380;SDS011;16364;52.490;13.326;2023-10-19T08:53:06;23.77;;;15.73;;
29380;SDS011;16364;52.490;13.326;2023-10-19T08:55:33;20.93;;;15.73;;
29380;SDS011;16364;52.490;13.326;2023-10-19T08:57:59;22.50;;;14.87;;
29380;SDS011;16364;52.490;13.326;2023-10-19T09:00:25;25.53;;;15.37;;
29380;SDS011;16364;52.490;13.326;2023-10-19T09:02:51;23.80;;;16.07;;
29380;SDS011;16364;52.490;13.326;2023-10-19T09:05:17;24.23;;;16.80;;
29380;SDS011;16364;52.490;13.326;2023-10-19T09:07:48;22.70;;;16.33;;
29380;SDS011;16364;52.490;13.326;2023-10-19T09:10:19;21.97;;;16.90;;
29380;SDS011;16364;52.490;13.326;2023-10-19T09:12:45;21.07;;;14.60;;
29380;SDS011;16364;52.490;13.326;2023-10-19T09:15:31;21.20;;;16.00;;
29380;SDS011;16364;52.490;13.326;2023-10-19T09:17:58;31.73;;;17.13;;
29380;SDS011;16364;52.490;13.326;2023-10-19T09:20:23;27.23;;;18.20;;
29380;SDS011;16364;52.490;13.326;2023-10-19T09:22:53;25.50;;;17.03;;
29380;SDS011;16364;52.490;13.326;2023-10-19T09:25:18;25.77;;;16.20;;
29380;SDS011;16364;52.490;13.326;2023-10-19T09:27:44;25.37;;;16.47;;
29380;SDS011;16364;52.490;13.326;2023-10-19T09:30:09;22.43;;;16.83;;
29380;SDS011;16364;52.490;13.326;2023-10-19T09:32:37;25.13;;;16.87;;
29380;SDS011;16364;52.490;13.326;2023-10-19T09:35:04;22.63;;;15.60;;
29380;SDS011;16364;52.490;13.326;2023-10-19T09:37:30;25.83;;;17.20;;
29380;SDS011;16364;52.490;13.326;2023-10-19T09:39:55;32.80;;;17.00;;
29380;SDS011;16364;52.490;13.326;2023-10-19T09:42:21;24.90;;;16.50;;
29380;SDS011;16364;52.490;13.326;2023-10-19T09:44:48;21.40;;;15.80;;
29380;SDS011;16364;52.490;13.326;2023-10-19T09:47:16;25.73;;;17.63;;
29380;SDS011;16364;52.490;13.326;2023-10-19T09:49:44;31.57;;;17.50;;
29380;SDS011;16364;52.490;13.326;2023-10-19T09:52:10;28.63;;;16.70;;
29380;SDS011;16364;52.490;13.326;2023-10-19T09:54:42;28.20;;;17.20;;
29380;SDS011;16364;52.490;13.326;2023-10-19T09:57:12;31.13;;;16.40;;
29380;SDS011;16364;52.490;13.326;2023-10-19T09:59:41;27.00;;;17.07;;
29380;SDS011;16364;52.490;13.326;2023-10-19T10:04:42;22.63;;;17.17;;
29380;SDS011;16364;52.490;13.326;2023-10-19T10:07:10;23.03;;;16.43;;
29380;SDS011;16364;52.490;13.326;2023-10-19T10:09:36;23.73;;;15.33;;
29380;SDS011;16364;52.490;13.326;2023-10-19T10:15:00;25.47;;;15.63;;
29380;SDS011;16364;52.490;13.326;2023-10-19T10:17:35;22.20;;;15.27;;
29380;SDS011;16364;52.490;13.326;2023-10-19T10:22:38;25.47;;;16.80;;
29380;SDS011;16364;52.490;13.326;2023-10-19T10:25:03;25.83;;;17.13;;
29380;SDS011;16364;52.490;13.326;2023-10-19T10:27:30;31.37;;;16.67;;
29380;SDS011;16364;52.490;13.326;2023-10-19T10:29:59;22.70;;;16.70;;
29380;SDS011;16364;52.490;13.326;2023-10-19T10:35:11;23.30;;;15.77;;
29380;SDS011;16364;52.490;13.326;2023-10-19T10:37:55;28.83;;;16.63;;
29380;SDS011;16364;52.490;13.326;2023-10-19T10:40:21;21.50;;;15.53;;
29380;SDS011;16364;52.490;13.326;2023-10-19T10:42:46;28.13;;;17.13;;
29380;SDS011;16364;52.490;13.326;2023-10-19T10:45:18;24.40;;;16.73;;
29380;SDS011;16364;52.490;13.326;2023-10-19T10:47:45;27.77;;;19.07;;
29380;SDS011;16364;52.490;13.326;2023-10-19T10:50:10;26.03;;;17.10;;
29380;SDS011;16364;52.490;13.326;2023-10-19T10:52:36;24.97;;;16.57;;
29380;SDS011;16364;52.490;13.326;2023-10-19T10:55:11;23.73;;;16.97;;
29380;SDS011;16364;52.490;13.326;2023-10-19T10:57:37;28.53;;;18.83;;
29380;SDS011;16364;52.490;13.326;2023-10-19T11:02:41;30.27;;;18.60;;
29380;SDS011;16364;52.490;13.326;2023-10-19T11:05:09;24.37;;;16.90;;
29380;SDS011;16364;52.490;13.326;2023-10-19T11:07:37;26.83;;;19.47;;
29380;SDS011;16364;52.490;13.326;2023-10-19T11:10:02;30.17;;;19.93;;
29380;SDS011;16364;52.490;13.326;2023-10-19T11:12:27;26.30;;;18.47;;
29380;SDS011;16364;52.490;13.326;2023-10-19T11:14:53;26.53;;;17.80;;
29380;SDS011;16364;52.490;13.326;2023-10-19T11:17:18;26.83;;;18.30;;
29380;SDS011;16364;52.490;13.326;2023-10-19T11:19:44;22.80;;;18.13;;
29380;SDS011;16364;52.490;13.326;2023-10-19T11:22:09;26.60;;;17.80;;
29380;SDS011;16364;52.490;13.326;2023-10-19T11:24:35;28.77;;;18.83;;
29380;SDS011;16364;52.490;13.326;2023-10-19T11:27:05;29.53;;;19.40;;
29380;SDS011;16364;52.490;13.326;2023-10-19T11:29:32;26.73;;;18.90;;
29380;SDS011;16364;52.490;13.326;2023-10-19T11:31:59;27.10;;;18.67;;
29380;SDS011;16364;52.490;13.326;2023-10-19T11:34:24;26.10;;;19.00;;
29380;SDS011;16364;52.490;13.326;2023-10-19T11:36:53;34.33;;;20.93;;
29380;SDS011;16364;52.490;13.326;2023-10-19T11:39:21;26.87;;;17.87;;
29380;SDS011;16364;52.490;13.326;2023-10-19T11:41:48;32.03;;;18.43;;
29380;SDS011;16364;52.490;13.326;2023-10-19T11:44:13;27.50;;;20.57;;
29380;SDS011;16364;52.490;13.326;2023-10-19T11:46:39;25.43;;;17.97;;
29380;SDS011;16364;52.490;13.326;2023-10-19T11:49:04;26.47;;;18.23;;
29380;SDS011;16364;52.490;13.326;2023-10-19T11:51:29;25.83;;;18.70;;
29380;SDS011;16364;52.490;13.326;2023-10-19T11:53:56;25.90;;;19.10;;
29380;SDS011;16364;52.490;13.326;2023-10-19T11:56:21;31.77;;;19.00;;
29380;SDS011;16364;52.490;13.326;2023-10-19T11:58:46;24.67;;;19.80;;
29380;SDS011;16364;52.490;13.326;2023-10-19T12:01:12;31.10;;;19.93;;
29380;SDS011;16364;52.490;13.326;2023-10-19T12:03:40;25.93;;;18.60;;
29380;SDS011;16364;52.490;13.326;2023-10-19T12:06:06;29.37;;;18.27;;
29380;SDS011;16364;52.490;13.326;2023-10-19T12:08:34;30.23;;;19.67;;
29380;SDS011;16364;52.490;13.326;2023-10-19T12:11:01;30.83;;;20.80;;
29380;SDS011;16364;52.490;13.326;2023-10-19T12:13:28;26.70;;;20.03;;
29380;SDS011;16364;52.490;13.326;2023-10-19T12:15:53;29.37;;;21.53;;
29380;SDS011;16364;52.490;13.326;2023-10-19T12:18:20;36.10;;;21.00;;
29380;SDS011;16364;52.490;13.326;2023-10-19T12:20:45;28.03;;;18.63;;
29380;SDS011;16364;52.490;13.326;2023-10-19T12:23:11;33.90;;;22.53;;
29380;SDS011;16364;52.490;13.326;2023-10-19T12:25:36;29.87;;;20.43;;
29380;SDS011;16364;52.490;13.326;2023-10-19T12:28:03;29.77;;;19.30;;
29380;SDS011;16364;52.490;13.326;2023-10-19T12:30:29;29.77;;;21.17;;
29380;SDS011;16364;52.490;13.326;2023-10-19T12:32:59;27.07;;;19.80;;
29380;SDS011;16364;52.490;13.326;2023-10-19T12:35:25;27.80;;;19.50;;
29380;SDS011;16364;52.490;13.326;2023-10-19T12:38:01;33.80;;;20.60;;
29380;SDS011;16364;52.490;13.326;2023-10-19T12:40:32;28.33;;;20.00;;
29380;SDS011;16364;52.490;13.326;2023-10-19T12:43:00;25.83;;;19.33;;
29380;SDS011;16364;52.490;13.326;2023-10-19T12:45:28;36.73;;;21.43;;
29380;SDS011;16364;52.490;13.326;2023-10-19T12:47:53;30.47;;;21.60;;
29380;SDS011;16364;52.490;13.326;2023-10-19T12:50:19;27.97;;;21.57;;
29380;SDS011;16364;52.490;13.326;2023-10-19T12:52:51;33.17;;;24.17;;
29380;SDS011;16364;52.490;13.326;2023-10-19T12:55:17;31.07;;;22.70;;
29380;SDS011;16364;52.490;13.326;2023-10-19T12:57:42;31.77;;;22.33;;
29380;SDS011;16364;52.490;13.326;2023-10-19T13:00:08;29.87;;;21.40;;
29380;SDS011;16364;52.490;13.326;2023-10-19T13:02:54;28.80;;;21.13;;
29380;SDS011;16364;52.490;13.326;2023-10-19T13:05:27;33.00;;;23.80;;
29380;SDS011;16364;52.490;13.326;2023-10-19T13:07:53;32.37;;;24.30;;
29380;SDS011;16364;52.490;13.326;2023-10-19T13:10:18;39.97;;;25.10;;
29380;SDS011;16364;52.490;13.326;2023-10-19T13:12:44;34.73;;;22.90;;
29380;SDS011;16364;52.490;13.326;2023-10-19T13:15:10;36.77;;;24.73;;
29380;SDS011;16364;52.490;13.326;2023-10-19T13:17:41;38.53;;;25.30;;
29380;SDS011;16364;52.490;13.326;2023-10-19T13:20:08;32.83;;;22.90;;
29380;SDS011;16364;52.490;13.326;2023-10-19T13:22:43;40.17;;;23.53;;
29380;SDS011;16364;52.490;13.326;2023-10-19T13:25:09;33.57;;;22.60;;
29380;SDS011;16364;52.490;13.326;2023-10-19T13:27:37;38.03;;;25.77;;
29380;SDS011;16364;52.490;13.326;2023-10-19T13:30:03;37.10;;;24.10;;
29380;SDS011;16364;52.490;13.326;2023-10-19T13:32:28;36.40;;;24.13;;
29380;SDS011;16364;52.490;13.326;2023-10-19T13:34:54;42.33;;;24.10;;
29380;SDS011;16364;52.490;13.326;2023-10-19T13:37:20;36.40;;;25.00;;
29380;SDS011;16364;52.490;13.326;2023-10-19T13:39:45;35.07;;;23.67;;
29380;SDS011;16364;52.490;13.326;2023-10-19T13:42:11;34.90;;;25.80;;
29380;SDS011;16364;52.490;13.326;2023-10-19T13:44:36;35.50;;;24.50;;
29380;SDS011;16364;52.490;13.326;2023-10-19T13:47:02;35.10;;;24.07;;
29380;SDS011;16364;52.490;13.326;2023-10-19T13:49:30;34.70;;;24.73;;
29380;SDS011;16364;52.490;13.326;2023-10-19T13:51:56;35.03;;;25.80;;
29380;SDS011;16364;52.490;13.326;2023-10-19T13:54:21;35.57;;;25.80;;
29380;SDS011;16364;52.490;13.326;2023-10-19T13:56:47;37.03;;;25.10;;
29380;SDS011;16364;52.490;13.326;2023-10-19T13:59:12;42.33;;;27.27;;
29380;SDS011;16364;52.490;13.326;2023-10-19T14:01:39;36.20;;;26.10;;
29380;SDS011;16364;52.490;13.326;2023-10-19T14:04:04;36.37;;;25.10;;
29380;SDS011;16364;52.490;13.326;2023-10-19T14:06:29;37.30;;;25.20;;
29380;SDS011;16364;52.490;13.326;2023-10-19T14:08:55;37.43;;;25.27;;
29380;SDS011;16364;52.490;13.326;2023-10-19T14:11:20;41.63;;;27.27;;
29380;SDS011;16364;52.490;13.326;2023-10-19T14:13:48;35.57;;;23.43;;
29380;SDS011;16364;52.490;13.326;2023-10-19T14:16:15;43.47;;;26.00;;
29380;SDS011;16364;52.490;13.326;2023-10-19T14:18:41;39.70;;;25.70;;
29380;SDS011;16364;52.490;13.326;2023-10-19T14:21:15;41.10;;;25.93;;
29380;SDS011;16364;52.490;13.326;2023-10-19T14:23:41;37.13;;;27.27;;
29380;SDS011;16364;52.490;13.326;2023-10-19T14:26:08;44.73;;;28.97;;
29380;SDS011;16364;52.490;13.326;2023-10-19T14:28:34;34.43;;;24.60;;